createdAt,value
2022-08-09T00:00:07.976Z,27.64
2022-08-09T00:02:35.180Z,27.66
2022-08-09T00:06:15.933Z,27.79
2022-08-09T00:07:49.511Z,27.74
2022-08-09T00:10:24.363Z,27.82
2022-08-09T00:12:52.989Z,27.74
2022-08-09T00:15:35.294Z,27.83
2022-08-09T00:18:11.410Z,27.83
2022-08-09T00:20:42.516Z,27.78
2022-08-09T00:23:54.986Z,27.67
2022-08-09T00:26:05.390Z,27.64
2022-08-09T00:28:32.304Z,27.63
2022-08-09T00:31:01.710Z,27.55
2022-08-09T00:33:50.948Z,27.44
2022-08-09T00:36:18.915Z,27.40
2022-08-09T00:38:46.025Z,27.44
2022-08-09T00:44:18.734Z,27.58
2022-08-09T00:44:19.305Z,27.51
2022-08-09T00:46:57.730Z,27.64
2022-08-09T00:49:32.173Z,27.66
2022-08-09T00:52:02.193Z,27.70
2022-08-09T00:54:35.955Z,27.73
2022-08-09T00:57:08.779Z,27.77
2022-08-09T00:59:41.540Z,27.79
2022-08-09T01:02:15.977Z,27.84
2022-08-09T01:04:50.159Z,27.82
2022-08-09T01:07:38.126Z,27.77
2022-08-09T01:10:09.198Z,27.64
2022-08-09T01:12:35.805Z,27.58
2022-08-09T01:15:10.073Z,27.60
2022-08-09T01:17:56.740Z,27.63
2022-08-09T01:20:40.002Z,27.59
2022-08-09T01:24:03.677Z,27.56
2022-08-09T01:26:08.573Z,27.54
2022-08-09T01:28:36.155Z,27.47
2022-08-09T01:31:06.165Z,27.62
2022-08-09T01:33:37.028Z,27.56
2022-08-09T01:36:06.085Z,27.59
2022-08-09T01:38:40.032Z,27.51
2022-08-09T01:41:09.545Z,27.62
2022-08-09T01:43:51.137Z,27.58
2022-08-09T01:46:26.884Z,27.50
2022-08-09T01:48:55.662Z,27.53
2022-08-09T01:51:23.734Z,27.54
2022-08-09T01:53:54.801Z,27.48
2022-08-09T01:56:25.492Z,27.54
2022-08-09T01:58:53.197Z,27.55
2022-08-09T02:01:58.588Z,27.50
2022-08-09T02:04:09.985Z,27.49
2022-08-09T02:06:58.995Z,27.56
2022-08-09T02:09:42.516Z,27.47
2022-08-09T02:12:11.101Z,27.40
2022-08-09T02:14:47.350Z,27.30
2022-08-09T02:17:59.776Z,27.30
2022-08-09T02:20:05.786Z,27.37
2022-08-09T02:22:36.176Z,27.34
2022-08-09T02:25:04.602Z,27.39
2022-08-09T02:27:57.622Z,27.36
2022-08-09T02:30:21.933Z,27.34
2022-08-09T02:32:53.373Z,27.35
2022-08-09T02:35:46.344Z,27.47
2022-08-09T02:38:22.064Z,27.39
2022-08-09T02:40:58.540Z,27.32
2022-08-09T02:43:28.803Z,27.32
2022-08-09T02:45:56.935Z,27.35
2022-08-09T02:48:30.837Z,27.46
2022-08-09T02:50:59.561Z,27.53
2022-08-09T02:53:34.357Z,27.40
2022-08-09T02:56:02.409Z,27.33
2022-08-09T02:58:35.388Z,27.47
2022-08-09T03:01:06.177Z,27.73
2022-08-09T03:04:12.913Z,27.83
2022-08-09T03:06:22.932Z,27.78
2022-08-09T03:08:52.382Z,27.79
2022-08-09T03:11:30.084Z,27.86
2022-08-09T03:14:09.962Z,27.71
2022-08-09T03:16:41.701Z,27.77
2022-08-09T03:19:14.454Z,27.77
2022-08-09T03:21:59.436Z,27.69
2022-08-09T03:24:31.623Z,27.61
2022-08-09T03:27:10.647Z,27.57
2022-08-09T03:29:58.167Z,27.65
2022-08-09T03:32:26.307Z,27.60
2022-08-09T03:34:54.245Z,27.49
2022-08-09T03:37:55.916Z,27.44
2022-08-09T03:40:13.246Z,27.42
2022-08-09T03:42:40.084Z,27.31
2022-08-09T03:45:10.260Z,27.32
2022-08-09T03:47:39.883Z,27.47
2022-08-09T03:50:10.041Z,27.48
2022-08-09T03:52:38.900Z,27.29
2022-08-09T03:55:07.581Z,27.27
2022-08-09T03:57:44.765Z,27.27
2022-08-09T04:00:23.445Z,27.24
2022-08-09T04:02:52.672Z,27.21
2022-08-09T04:05:27.595Z,27.28
2022-08-09T04:07:57.341Z,27.26
2022-08-09T04:10:29.146Z,27.15
2022-08-09T04:12:56.557Z,27.14
2022-08-09T04:15:38.804Z,27.12
2022-08-09T04:18:16.749Z,27.23
2022-08-09T04:20:47.154Z,27.13
2022-08-09T04:23:16.889Z,27.11
2022-08-09T04:25:44.101Z,27.13
2022-08-09T04:28:10.734Z,27.13
2022-08-09T04:30:39.149Z,27.20
2022-08-09T04:33:11.552Z,27.14
2022-08-09T04:35:42.237Z,27.11
2022-08-09T04:38:09.213Z,27.09
2022-08-09T04:40:56.277Z,27.10
2022-08-09T04:43:25.159Z,27.06
2022-08-09T04:45:54.022Z,26.98
2022-08-09T04:48:21.019Z,27.00
2022-08-09T04:50:50.340Z,27.10
2022-08-09T04:53:16.986Z,27.07
2022-08-09T04:55:58.993Z,27.10
2022-08-09T04:58:31.665Z,27.12
2022-08-09T05:01:00.226Z,27.02
2022-08-09T05:03:41.013Z,27.03
2022-08-09T05:06:25.863Z,27.04
2022-08-09T05:09:00.667Z,27.19
2022-08-09T05:11:30.451Z,27.28
2022-08-09T05:13:59.384Z,27.26
2022-08-09T05:16:28.493Z,27.22
2022-08-09T05:18:59.988Z,27.20
2022-08-09T05:21:30.235Z,27.10
2022-08-09T05:24:05.412Z,27.11
2022-08-09T05:26:36.666Z,27.13
2022-08-09T05:29:17.499Z,27.10
2022-08-09T05:31:56.055Z,27.12
2022-08-09T05:34:30.176Z,27.07
2022-08-09T05:37:01.459Z,27.03
2022-08-09T05:39:35.646Z,27.07
2022-08-09T05:42:04.874Z,27.01
2022-08-09T05:44:34.867Z,26.95
2022-08-09T05:47:05.692Z,26.98
2022-08-09T05:50:23.279Z,27.01
2022-08-09T05:52:19.720Z,27.08
2022-08-09T05:54:46.450Z,27.11
2022-08-09T05:57:17.531Z,27.14
2022-08-09T05:59:45.925Z,27.28
2022-08-09T06:02:16.979Z,27.26
2022-08-09T06:04:46.070Z,27.40
2022-08-09T06:07:21.506Z,27.40
2022-08-09T06:09:54.562Z,27.45
2022-08-09T06:12:29.611Z,27.42
2022-08-09T06:15:00.909Z,27.41
2022-08-09T06:17:40.406Z,27.51
2022-08-09T06:20:08.285Z,27.57
2022-08-09T06:22:35.434Z,27.56
2022-08-09T06:25:02.333Z,27.66
2022-08-09T06:27:42.136Z,27.78
2022-08-09T06:30:10.185Z,27.82
2022-08-09T06:32:59.733Z,27.87
2022-08-09T06:35:56.002Z,27.92
2022-08-09T06:38:10.297Z,27.98
2022-08-09T06:40:38.201Z,27.97
2022-08-09T06:43:10.596Z,27.99
2022-08-09T06:46:06.493Z,28.03
2022-08-09T06:48:26.163Z,28.09
2022-08-09T06:50:58.442Z,28.07
2022-08-09T06:53:25.124Z,28.11
2022-08-09T06:55:52.310Z,28.21
2022-08-09T07:00:46.446Z,28.21
2022-08-09T07:01:06.026Z,27.91
2022-08-09T07:03:39.510Z,28.00
2022-08-09T07:06:18.311Z,27.79
2022-08-09T07:08:46.691Z,27.53
2022-08-09T07:11:17.565Z,27.51
2022-08-09T07:14:04.880Z,27.45
2022-08-09T07:16:42.476Z,27.35
2022-08-09T07:19:23.122Z,27.44
2022-08-09T07:21:57.586Z,27.50
2022-08-09T07:24:31.825Z,27.53
2022-08-09T07:27:00.328Z,27.63
2022-08-09T07:29:37.739Z,27.90
2022-08-09T07:32:05.036Z,27.76
2022-08-09T07:34:32.451Z,27.90
2022-08-09T07:37:02.495Z,27.85
2022-08-09T07:39:41.291Z,28.05
2022-08-09T07:42:09.319Z,28.05
2022-08-09T07:44:50.946Z,28.06
2022-08-09T07:47:21.038Z,28.17
2022-08-09T07:49:52.310Z,28.21
2022-08-09T07:52:32.915Z,28.15
2022-08-09T07:55:00.391Z,28.27
2022-08-09T07:57:33.931Z,28.29
2022-08-09T08:00:03.377Z,28.35
2022-08-09T08:02:30.711Z,28.42
2022-08-09T08:04:57.469Z,28.40
2022-08-09T08:08:44.414Z,28.50
2022-08-09T08:10:12.474Z,28.54
2022-08-09T08:12:43.611Z,28.52
2022-08-09T08:15:13.800Z,28.46
2022-08-09T08:17:53.461Z,28.57
2022-08-09T08:20:29.402Z,28.80
2022-08-09T08:23:06.245Z,28.78
2022-08-09T08:25:49.835Z,28.86
2022-08-09T08:28:18.248Z,28.66
2022-08-09T08:30:52.667Z,28.63
2022-08-09T08:33:24.527Z,28.70
2022-08-09T08:35:58.707Z,28.85
2022-08-09T08:38:28.088Z,28.94
2022-08-09T08:40:55.897Z,28.95
2022-08-09T08:43:23.940Z,28.97
2022-08-09T08:46:00.093Z,28.96
2022-08-09T08:48:31.519Z,28.92
2022-08-09T08:50:58.813Z,28.94
2022-08-09T08:53:32.133Z,28.97
2022-08-09T08:56:04.384Z,29.09
2022-08-09T08:58:33.026Z,29.15
2022-08-09T09:01:08.635Z,29.20
2022-08-09T09:03:37.907Z,29.28
2022-08-09T09:06:05.857Z,29.29
2022-08-09T09:08:38.134Z,29.33
2022-08-09T09:11:08.270Z,29.48
2022-08-09T09:13:47.294Z,29.48
2022-08-09T09:16:30.801Z,29.49
2022-08-09T09:19:22.663Z,29.39
2022-08-09T09:22:05.172Z,29.39
2022-08-09T09:24:43.353Z,29.37
2022-08-09T09:27:11.784Z,29.32
2022-08-09T09:30:14.541Z,29.23
2022-08-09T09:33:16.984Z,29.16
2022-08-09T09:36:02.488Z,29.35
2022-08-09T09:38:47.431Z,29.45
2022-08-09T09:41:22.895Z,29.56
2022-08-09T09:44:11.128Z,29.51
2022-08-09T09:46:42.124Z,29.56
2022-08-09T09:49:12.627Z,29.58
2022-08-09T09:51:40.510Z,29.58
2022-08-09T09:54:19.254Z,29.52
2022-08-09T09:56:53.349Z,29.56
2022-08-09T09:59:36.382Z,29.51
2022-08-09T10:02:03.042Z,29.55
2022-08-09T10:04:30.391Z,29.62
2022-08-09T10:06:58.793Z,29.75
2022-08-09T10:09:48.791Z,29.60
2022-08-09T10:12:28.667Z,29.76
2022-08-09T10:15:51.073Z,29.74
2022-08-09T10:18:12.862Z,29.89
2022-08-09T10:20:44.633Z,29.84
2022-08-09T10:23:20.324Z,29.80
2022-08-09T10:26:07.448Z,29.65
2022-08-09T10:28:35.849Z,29.92
2022-08-09T10:34:10.571Z,30.04
2022-08-09T10:36:36.817Z,29.84
2022-08-09T10:39:05.933Z,30.01
2022-08-09T10:41:42.955Z,30.12
2022-08-09T10:44:10.153Z,29.92
2022-08-09T10:46:55.270Z,29.93
2022-08-09T10:49:49.723Z,30.09
2022-08-09T10:52:44.821Z,30.19
2022-08-09T10:55:22.817Z,30.07
2022-08-09T10:57:51.721Z,30.02
2022-08-09T11:00:41.700Z,30.31
2022-08-09T11:03:49.765Z,30.46
2022-08-09T11:06:23.198Z,30.81
2022-08-09T11:08:53.439Z,30.87
2022-08-09T11:11:21.954Z,30.79
2022-08-09T11:14:08.787Z,30.87
2022-08-09T11:16:43.105Z,31.20
2022-08-09T11:19:13.794Z,31.25
2022-08-09T11:21:57.125Z,31.43
2022-08-09T11:24:52.239Z,31.52
2022-08-09T11:28:04.706Z,31.33
2022-08-09T11:30:33.229Z,31.30
2022-08-09T11:33:19.267Z,31.44
2022-08-09T11:36:06.238Z,31.28
2022-08-09T11:38:35.234Z,31.25
2022-08-09T11:41:12.846Z,31.25
2022-08-09T11:43:42.197Z,31.29
2022-08-09T11:46:09.577Z,31.35
2022-08-09T11:48:53.919Z,31.23
2022-08-09T11:53:00.606Z,31.26
2022-08-09T11:54:27.702Z,31.29
2022-08-09T11:57:18.292Z,31.54
2022-08-09T11:59:55.340Z,31.53
2022-08-09T12:02:36.868Z,31.36
2022-08-09T12:05:07.664Z,31.41
2022-08-09T12:07:44.691Z,31.41
2022-08-09T12:10:32.077Z,31.57
2022-08-09T12:13:03.469Z,31.46
2022-08-09T12:15:49.680Z,31.51
2022-08-09T12:18:26.219Z,30.99
2022-08-09T12:21:00.397Z,31.62
2022-08-09T12:23:58.790Z,31.59
2022-08-09T12:26:25.406Z,31.58
2022-08-09T12:29:11.816Z,31.28
2022-08-09T12:31:59.313Z,31.54
2022-08-09T12:34:42.782Z,31.17
2022-08-09T12:37:24.004Z,31.34
2022-08-09T12:39:59.803Z,31.16
2022-08-09T12:42:28.285Z,31.23
2022-08-09T12:44:56.965Z,31.41
2022-08-09T12:47:26.319Z,31.05
2022-08-09T12:50:11.835Z,31.22
2022-08-09T12:52:43.016Z,31.12
2022-08-09T12:56:16.128Z,31.32
2022-08-09T12:58:24.002Z,30.90
2022-08-09T13:00:51.412Z,31.06
2022-08-09T13:03:28.527Z,31.16
2022-08-09T13:06:23.864Z,31.35
2022-08-09T13:09:01.228Z,31.23
2022-08-09T13:11:31.950Z,31.18
2022-08-09T13:14:40.853Z,31.67
2022-08-09T13:16:51.747Z,31.48
2022-08-09T13:20:06.945Z,31.18
2022-08-09T13:22:35.898Z,31.40
2022-08-09T13:25:03.928Z,31.45
2022-08-09T13:27:39.669Z,31.08
2022-08-09T13:31:10.960Z,31.15
2022-08-09T13:33:02.497Z,31.40
2022-08-09T13:35:34.691Z,31.43
2022-08-09T13:38:32.827Z,31.14
2022-08-09T13:41:46.176Z,31.09
2022-08-09T13:43:49.888Z,31.00
2022-08-09T13:47:15.216Z,30.99
2022-08-09T13:49:03.470Z,31.02
2022-08-09T13:51:32.207Z,31.07
2022-08-09T13:53:58.910Z,31.23
2022-08-09T13:56:25.680Z,30.80
2022-08-09T13:58:53.538Z,30.96
2022-08-09T14:02:00.901Z,31.00
2022-08-09T14:04:11.345Z,31.27
2022-08-09T14:06:43.846Z,30.83
2022-08-09T14:09:13.401Z,30.95
2022-08-09T14:11:46.899Z,30.98
2022-08-09T14:14:23.421Z,31.20
2022-08-09T14:16:53.421Z,31.33
2022-08-09T14:19:20.782Z,31.70
2022-08-09T14:21:49.211Z,31.41
2022-08-09T14:24:22.444Z,31.14
2022-08-09T14:27:00.472Z,31.27
2022-08-09T14:30:19.322Z,31.15
2022-08-09T14:32:16.315Z,31.10
2022-08-09T14:34:43.250Z,31.56
2022-08-09T14:37:11.553Z,31.62
2022-08-09T14:39:45.645Z,31.51
2022-08-09T14:42:29.043Z,31.75
2022-08-09T14:45:00.799Z,32.15
2022-08-09T14:47:44.774Z,32.16
2022-08-09T14:50:16.244Z,31.85
2022-08-09T14:52:44.016Z,31.87
2022-08-09T14:55:20.485Z,31.29
2022-08-09T14:57:48.943Z,31.63
2022-08-09T15:00:16.139Z,31.54
2022-08-09T15:02:42.852Z,31.95
2022-08-09T15:05:16.924Z,31.86
2022-08-09T15:07:45.575Z,31.79
2022-08-09T15:10:24.966Z,31.60
2022-08-09T15:12:52.667Z,31.58
2022-08-09T15:15:20.328Z,31.63
2022-08-09T15:17:52.512Z,31.26
2022-08-09T15:22:01.803Z,31.64
2022-08-09T15:24:00.920Z,31.50
2022-08-09T15:25:54.062Z,31.71
2022-08-09T15:28:27.293Z,31.99
2022-08-09T15:31:03.036Z,31.59
2022-08-09T15:34:18.059Z,31.65
2022-08-09T15:36:28.408Z,31.55
2022-08-09T15:38:56.513Z,31.46
2022-08-09T15:41:31.158Z,31.75
2022-08-09T15:44:00.048Z,31.03
2022-08-09T15:46:32.183Z,31.41
2022-08-09T15:49:22.809Z,30.54
2022-08-09T15:52:03.423Z,30.43
2022-08-09T15:54:44.800Z,30.72
2022-08-09T15:57:19.292Z,30.73
2022-08-09T16:00:01.490Z,30.73
2022-08-09T16:02:28.146Z,30.64
2022-08-09T16:04:55.756Z,30.67
2022-08-09T16:07:22.695Z,30.60
2022-08-09T16:10:04.011Z,30.52
2022-08-09T16:12:32.140Z,30.66
2022-08-09T16:14:59.152Z,30.76
2022-08-09T16:17:28.635Z,30.82
2022-08-09T16:20:04.747Z,30.86
2022-08-09T16:22:36.723Z,30.80
2022-08-09T16:25:09.836Z,30.44
2022-08-09T16:27:37.722Z,29.95
2022-08-09T16:30:08.489Z,29.69
2022-08-09T16:33:00.355Z,30.14
2022-08-09T16:35:56.034Z,29.68
2022-08-09T16:38:15.103Z,30.22
2022-08-09T16:40:44.880Z,30.06
2022-08-09T16:43:12.402Z,30.23
2022-08-09T16:45:44.324Z,29.82
2022-08-09T16:48:38.021Z,30.32
2022-08-09T16:51:07.554Z,30.35
2022-08-09T16:53:36.203Z,30.21
2022-08-09T16:56:09.366Z,30.06
2022-08-09T16:58:37.298Z,29.82
2022-08-09T17:01:07.163Z,30.19
2022-08-09T17:03:33.827Z,29.83
2022-08-09T17:06:07.433Z,30.09
2022-08-09T17:09:04.902Z,29.84
2022-08-09T17:11:41.495Z,29.66
2022-08-09T17:14:25.857Z,30.26
2022-08-09T17:16:55.332Z,30.50
2022-08-09T17:19:21.991Z,30.37
2022-08-09T17:21:54.426Z,30.40
2022-08-09T17:24:28.425Z,30.40
2022-08-09T17:26:58.197Z,29.82
2022-08-09T17:29:25.154Z,29.88
2022-08-09T17:32:00.333Z,30.23
2022-08-09T17:35:01.585Z,30.22
2022-08-09T17:37:19.611Z,30.07
2022-08-09T17:39:52.531Z,30.15
2022-08-09T17:42:41.169Z,30.22
2022-08-09T17:45:23.701Z,30.19
2022-08-09T17:47:55.830Z,30.33
2022-08-09T17:50:36.913Z,30.30
2022-08-09T17:53:19.215Z,30.20
2022-08-09T17:55:49.122Z,30.07
2022-08-09T17:58:19.149Z,29.87
2022-08-09T18:00:46.412Z,29.74
2022-08-09T18:03:13.619Z,29.80
2022-08-09T18:05:43.971Z,30.09
2022-08-09T18:08:11.169Z,30.11
2022-08-09T18:10:40.136Z,30.02
2022-08-09T18:13:40.067Z,29.80
2022-08-09T18:16:07.766Z,29.88
2022-08-09T18:18:43.347Z,30.13
2022-08-09T18:21:22.870Z,29.78
2022-08-09T18:24:12.524Z,29.58
2022-08-09T18:26:38.368Z,29.69
2022-08-09T18:30:35.188Z,30.04
2022-08-09T18:32:01.055Z,29.59
2022-08-09T18:34:31.813Z,29.66
2022-08-09T18:36:58.848Z,29.78
2022-08-09T18:39:32.295Z,29.80
2022-08-09T18:42:01.224Z,30.00
2022-08-09T18:44:27.977Z,30.07
2022-08-09T18:47:07.465Z,30.07
2022-08-09T18:49:42.920Z,29.88
2022-08-09T18:52:11.806Z,29.70
2022-08-09T18:54:38.922Z,29.71
2022-08-09T18:57:08.828Z,29.45
2022-08-09T18:59:37.363Z,29.52
2022-08-09T19:02:16.314Z,29.53
2022-08-09T19:04:47.535Z,29.46
2022-08-09T19:07:29.741Z,29.32
2022-08-09T19:10:14.279Z,29.46
2022-08-09T19:12:50.315Z,29.52
2022-08-09T19:15:25.804Z,29.26
2022-08-09T19:17:56.574Z,29.29
2022-08-09T19:20:25.406Z,29.47
2022-08-09T19:22:54.591Z,29.41
2022-08-09T19:25:41.855Z,29.48
2022-08-09T19:28:08.872Z,29.38
2022-08-09T19:30:40.716Z,29.34
2022-08-09T19:33:19.071Z,29.38
2022-08-09T19:35:57.560Z,29.35
2022-08-09T19:38:25.390Z,29.47
2022-08-09T19:40:52.936Z,29.42
2022-08-09T19:44:00.859Z,29.53
2022-08-09T19:46:14.973Z,29.70
2022-08-09T19:49:00.344Z,29.63
2022-08-09T19:51:30.921Z,29.60
2022-08-09T19:53:58.660Z,29.55
2022-08-09T19:56:29.321Z,29.55
2022-08-09T19:59:39.548Z,29.65
2022-08-09T20:02:03.272Z,29.61
2022-08-09T20:04:37.572Z,29.60
2022-08-09T20:07:20.921Z,29.60
2022-08-09T20:09:48.110Z,29.56
2022-08-09T20:12:31.784Z,29.48
2022-08-09T20:15:04.652Z,29.63
2022-08-09T20:17:48.356Z,29.62
2022-08-09T20:20:15.567Z,29.47
2022-08-09T20:22:46.460Z,29.57
2022-08-09T20:25:13.322Z,29.43
2022-08-09T20:27:49.800Z,29.29
2022-08-09T20:30:18.104Z,29.50
2022-08-09T20:32:52.294Z,29.46
2022-08-09T20:35:19.705Z,29.57
2022-08-09T20:38:22.043Z,29.34
2022-08-09T20:40:33.271Z,29.32
2022-08-09T20:43:18.123Z,29.37
2022-08-09T20:46:01.766Z,29.36
2022-08-09T20:48:36.248Z,29.28
2022-08-09T20:51:03.815Z,29.24
2022-08-09T20:53:37.287Z,29.22
2022-08-09T20:56:20.044Z,29.05
2022-08-09T20:58:49.051Z,29.09
2022-08-09T21:01:34.154Z,29.27
2022-08-09T21:04:08.404Z,29.25
2022-08-09T21:06:51.109Z,29.18
2022-08-09T21:09:24.942Z,29.17
2022-08-09T21:14:34.772Z,29.00
2022-08-09T21:18:23.814Z,28.82
2022-08-09T21:20:19.433Z,29.07
2022-08-09T21:22:42.641Z,28.94
2022-08-09T21:25:37.736Z,28.60
2022-08-09T21:28:05.080Z,28.80
2022-08-09T21:30:34.298Z,29.04
2022-08-09T21:33:05.958Z,28.96
2022-08-09T21:35:39.462Z,28.83
2022-08-09T21:38:18.148Z,28.95
2022-08-09T21:40:50.617Z,28.70
2022-08-09T21:43:21.673Z,29.17
2022-08-09T21:46:04.381Z,28.92
2022-08-09T21:48:31.621Z,28.77
2022-08-09T21:50:58.874Z,28.70
2022-08-09T21:53:40.702Z,29.11
2022-08-09T21:56:14.979Z,28.97
2022-08-09T21:58:54.496Z,29.03
2022-08-09T22:01:44.911Z,29.02
2022-08-09T22:04:08.419Z,29.25
2022-08-09T22:06:36.719Z,29.17
2022-08-09T22:09:03.758Z,28.88
2022-08-09T22:12:06.814Z,28.93
2022-08-09T22:14:17.011Z,28.75
2022-08-09T22:16:43.769Z,28.68
2022-08-09T22:19:58.017Z,29.06
2022-08-09T22:21:57.378Z,28.88
2022-08-09T22:24:25.105Z,29.12
2022-08-09T22:26:52.299Z,28.91
2022-08-09T22:29:19.623Z,28.85
2022-08-09T22:31:56.289Z,28.93
2022-08-09T22:34:25.691Z,28.67
2022-08-09T22:36:52.755Z,28.79
2022-08-09T22:39:47.204Z,28.69
2022-08-09T22:42:21.491Z,28.80
2022-08-09T22:45:02.452Z,28.91
2022-08-09T22:48:13.369Z,28.87
2022-08-09T22:50:27.166Z,28.72
2022-08-09T22:52:58.045Z,28.78
2022-08-09T22:55:27.906Z,28.70
2022-08-09T22:58:06.855Z,28.76
2022-08-09T23:00:35.570Z,28.66
2022-08-09T23:03:04.146Z,28.88
2022-08-09T23:05:39.541Z,28.78
2022-08-09T23:08:31.265Z,28.87
2022-08-09T23:10:58.098Z,28.94
2022-08-09T23:13:24.818Z,28.94
2022-08-09T23:16:03.147Z,28.92
2022-08-09T23:18:30.548Z,28.89
2022-08-09T23:20:57.222Z,28.89
2022-08-09T23:23:23.952Z,28.92
2022-08-09T23:25:50.652Z,28.90
2022-08-09T23:28:17.263Z,28.83
2022-08-09T23:30:51.217Z,28.83
2022-08-09T23:33:19.432Z,28.76
2022-08-09T23:36:05.188Z,28.78
2022-08-09T23:38:32.746Z,28.64
2022-08-09T23:40:59.370Z,28.72
2022-08-09T23:43:26.053Z,28.80
2022-08-09T23:45:52.755Z,28.77
2022-08-09T23:48:19.904Z,28.70
2022-08-09T23:50:46.646Z,28.68
2022-08-09T23:53:13.492Z,28.65
2022-08-09T23:55:47.289Z,28.64
2022-08-09T23:58:24.282Z,28.60
